Time;durP1;ratioP1;P1;durP2;ratioP2;P2;SDS_P1;SDS_P2;PMS_P1;PMS_P2;Temp;Humidity;BMP_temperature;BMP_pressure;BME280_temperature;BME280_humidity;BME280_pressure;Samples;Min_cycle;Max_cycle;Signal;HPM_P1;HPM_P2
2023/09/05 00:00:01;;;;;;;20.77;6.90;;;;;;;23.30;58.49;101934.87;2105216;83;51334;-74
2023/09/05 00:03:03;;;;;;;23.65;6.10;;;;;;;23.32;58.48;101942.30;2123955;83;51418;-73
2023/09/05 00:06:06;;;;;;;20.27;6.47;;;;;;;23.32;58.47;101937.73;2127524;83;50981;-74
2023/09/05 00:09:08;;;;;;;18.90;5.72;;;;;;;23.31;58.49;101935.23;2104994;83;50681;-74
2023/09/05 00:12:10;;;;;;;19.60;6.17;;;;;;;23.33;58.48;101942.64;2122722;83;50293;-74
2023/09/05 00:15:14;;;;;;;22.70;5.97;;;;;;;23.33;58.47;101934.02;2082849;83;51674;-73
2023/09/05 00:18:16;;;;;;;20.95;5.80;;;;;;;23.33;58.51;101935.37;2105789;83;50753;-74
2023/09/05 00:21:18;;;;;;;21.30;6.25;;;;;;;23.33;58.48;101931.32;2104420;83;50572;-73
2023/09/05 00:24:30;;;;;;;20.23;6.22;;;;;;;23.33;58.46;101926.44;2105516;83;50726;-74
2023/09/05 00:27:34;;;;;;;16.95;6.22;;;;;;;23.32;58.61;101921.52;2124269;82;22799;-74
2023/09/05 00:30:36;;;;;;;23.80;6.58;;;;;;;23.32;58.56;101926.92;2105638;83;22364;-74
2023/09/05 00:33:38;;;;;;;18.25;6.33;;;;;;;23.32;58.56;101927.44;2105002;83;52374;-74
2023/09/05 00:36:40;;;;;;;17.82;6.25;;;;;;;23.32;58.51;101917.98;2105174;83;50698;-73
2023/09/05 00:39:44;;;;;;;17.55;6.53;;;;;;;23.32;58.49;101919.34;2083489;83;51215;-73
2023/09/05 00:42:47;;;;;;;19.10;6.42;;;;;;;23.33;58.41;101921.03;2103373;83;51592;-73
2023/09/05 00:45:51;;;;;;;18.73;6.47;;;;;;;23.32;58.46;101916.64;2121311;83;50402;-74
2023/09/05 00:48:57;;;;;;;16.42;6.03;;;;;;;23.30;58.56;101927.64;2104160;83;50541;-74
2023/09/05 00:52:01;;;;;;;19.40;6.00;;;;;;;23.31;58.50;101919.02;2122347;83;22428;-74
2023/09/05 00:55:03;;;;;;;17.57;5.95;;;;;;;23.31;58.51;101922.55;2122152;83;50390;-73
2023/09/05 00:58:05;;;;;;;19.80;6.62;;;;;;;23.31;58.56;101913.11;2103248;83;51451;-73
2023/09/05 01:01:07;;;;;;;20.37;6.25;;;;;;;23.34;58.50;101908.68;2121563;83;50263;-73
2023/09/05 01:04:09;;;;;;;18.82;5.92;;;;;;;23.31;58.73;101905.52;2101713;83;51202;-74
2023/09/05 01:07:20;;;;;;;21.05;5.72;;;;;;;23.30;58.74;101901.13;2122437;83;50582;-74
2023/09/05 01:10:32;;;;;;;16.75;5.90;;;;;;;23.30;58.73;101898.42;2121789;82;51645;-73
2023/09/05 01:13:34;;;;;;;16.87;5.78;;;;;;;23.29;58.82;101894.06;2120687;83;50705;-73
2023/09/05 01:16:45;;;;;;;14.30;5.62;;;;;;;23.30;58.71;101899.28;2102826;83;50683;-74
2023/09/05 01:19:41;;;;;;;20.00;6.15;;;;;;;23.31;58.66;101897.42;2120646;82;22353;-74
2023/09/05 01:22:55;;;;;;;15.63;6.15;;;;;;;23.33;58.48;101888.11;2120787;84;51483;-74
2023/09/05 01:25:59;;;;;;;17.37;6.12;;;;;;;23.36;58.43;101886.91;2120851;83;51529;-74
2023/09/05 01:29:01;;;;;;;14.40;5.87;;;;;;;23.33;58.53;101888.63;2103278;83;52466;-75
2023/09/05 01:32:04;;;;;;;13.03;5.47;;;;;;;23.33;58.46;101885.92;2121357;84;50295;-74
2023/09/05 01:35:07;;;;;;;16.27;6.08;;;;;;;23.31;58.56;101887.45;2121190;83;51435;-74
2023/09/05 01:38:09;;;;;;;18.95;5.90;;;;;;;23.32;58.52;101881.53;2103128;83;51577;-73
2023/09/05 01:41:12;;;;;;;22.20;6.12;;;;;;;23.31;58.58;101887.45;2122385;83;51478;-74
2023/09/05 01:44:14;;;;;;;16.90;6.37;;;;;;;23.31;58.51;101881.21;2080469;84;51687;-74
2023/09/05 01:47:16;;;;;;;14.47;6.12;;;;;;;23.30;58.52;101874.11;2102988;83;50133;-74
2023/09/05 01:50:19;;;;;;;10.63;5.12;;;;;;;23.32;58.46;101880.17;2120912;84;50627;-73
2023/09/05 01:53:23;;;;;;;12.68;5.40;;;;;;;23.31;58.47;101879.34;2102922;83;52575;-74
2023/09/05 01:56:25;;;;;;;16.25;5.65;;;;;;;23.31;58.49;101874.46;2103691;84;22364;-73
2023/09/05 01:59:28;;;;;;;17.20;5.17;;;;;;;23.32;58.52;101872.08;2103039;83;50326;-74
2023/09/05 02:02:30;;;;;;;12.78;5.25;;;;;;;23.36;58.36;101870.70;2121240;84;50780;-74
2023/09/05 02:05:32;;;;;;;15.13;6.17;;;;;;;23.36;58.34;101874.75;2103166;84;51454;-73
2023/09/05 02:08:34;;;;;;;13.38;5.60;;;;;;;23.33;58.43;101868.37;2081061;83;52420;-74
2023/09/05 02:11:37;;;;;;;20.02;5.40;;;;;;;23.32;58.40;101867.50;2103218;84;51608;-73
2023/09/05 02:14:47;;;;;;;13.80;5.42;;;;;;;23.33;58.39;101871.07;2121364;84;51371;-72
2023/09/05 02:17:43;;;;;;;13.55;5.62;;;;;;;23.34;58.33;101864.63;2103526;83;22420;-74
2023/09/05 02:20:45;;;;;;;12.88;4.85;;;;;;;23.34;58.32;101865.47;2103348;83;53388;-74
2023/09/05 02:23:47;;;;;;;12.85;5.37;;;;;;;23.32;58.37;101855.88;2121385;84;51325;-74
2023/09/05 02:26:49;;;;;;;15.25;5.47;;;;;;;23.31;58.44;101851.50;2103242;83;51485;-74
2023/09/05 02:29:55;;;;;;;12.28;5.15;;;;;;;23.29;58.44;101850.33;2102881;84;50254;-75
2023/09/05 02:32:55;;;;;;;12.58;5.53;;;;;;;23.30;58.43;101844.41;2103037;83;23009;-75
2023/09/05 02:36:07;;;;;;;18.52;5.42;;;;;;;23.30;58.51;101845.76;2102606;83;50245;-72
2023/09/05 02:39:09;;;;;;;13.83;4.87;;;;;;;23.31;58.45;101846.94;2109178;83;51761;-76
2023/09/05 02:42:11;;;;;;;18.57;5.33;;;;;;;23.32;58.40;101838.31;2101887;84;52414;-76
2023/09/05 02:45:14;;;;;;;20.15;6.00;;;;;;;23.33;58.38;101831.39;2102953;83;50224;-76
2023/09/05 02:48:16;;;;;;;18.10;5.40;;;;;;;23.33;58.39;101827.86;2103004;84;51426;-75
2023/09/05 02:51:18;;;;;;;12.43;5.42;;;;;;;23.34;58.28;101826.30;2103252;83;50245;-73
2023/09/05 02:54:20;;;;;;;16.15;5.62;;;;;;;23.34;58.29;101830.36;2102784;83;50318;-74
2023/09/05 02:57:23;;;;;;;14.28;5.87;;;;;;;23.34;58.27;101831.70;2120962;83;50643;-75
2023/09/05 03:00:25;;;;;;;12.80;5.15;;;;;;;23.34;58.26;101836.27;2103270;84;51536;-74
2023/09/05 03:03:28;;;;;;;17.52;5.33;;;;;;;23.36;58.21;101838.28;2102913;84;50137;-73
2023/09/05 03:06:30;;;;;;;16.02;5.40;;;;;;;23.34;58.27;101837.63;2103154;83;51402;-73
2023/09/05 03:09:33;;;;;;;17.67;5.20;;;;;;;23.32;58.36;101845.06;2122031;83;50647;-74
2023/09/05 03:12:36;;;;;;;22.22;6.08;;;;;;;23.31;58.32;101842.89;2121184;84;50290;-74
2023/09/05 03:15:38;;;;;;;16.32;5.30;;;;;;;23.32;58.32;101836.97;2103401;84;50241;-75
2023/09/05 03:18:40;;;;;;;18.07;5.58;;;;;;;23.31;58.34;101835.30;2103033;84;50655;-74
2023/09/05 03:21:42;;;;;;;12.70;5.78;;;;;;;23.30;58.37;101839.01;2103032;83;51335;-74
2023/09/05 03:24:44;;;;;;;15.70;5.03;;;;;;;23.30;58.39;101837.17;2121196;83;50651;-74
2023/09/05 03:27:47;;;;;;;11.60;4.92;;;;;;;23.29;58.34;101840.05;2102816;84;50287;-75
2023/09/05 03:30:49;;;;;;;13.98;4.95;;;;;;;23.30;58.35;101839.01;2103041;83;51644;-75
2023/09/05 03:33:51;;;;;;;21.70;5.92;;;;;;;23.29;58.32;101840.05;2120695;82;50525;-74
2023/09/05 03:36:53;;;;;;;13.35;4.72;;;;;;;23.29;58.35;101837.34;2121407;84;51573;-73
2023/09/05 03:39:56;;;;;;;11.28;5.40;;;;;;;23.29;58.30;101827.38;2103417;83;50316;-74
2023/09/05 03:42:58;;;;;;;16.32;5.45;;;;;;;23.28;58.33;101828.41;2102917;84;50356;-73
2023/09/05 03:46:00;;;;;;;14.10;5.22;;;;;;;23.26;58.34;101823.18;2081295;83;50256;-73
2023/09/05 03:49:03;;;;;;;11.63;4.90;;;;;;;23.29;58.26;101829.24;2121484;82;51499;-74
2023/09/05 03:52:05;;;;;;;18.35;5.25;;;;;;;23.30;58.17;101829.55;2102661;84;50216;-74
2023/09/05 03:55:08;;;;;;;14.00;4.83;;;;;;;23.30;58.24;101836.30;2076488;84;50571;-74
2023/09/05 03:58:11;;;;;;;14.33;5.17;;;;;;;23.29;58.26;101834.64;2103168;83;50231;-74
2023/09/05 04:01:14;;;;;;;11.78;4.72;;;;;;;23.29;58.21;101831.94;2121367;83;51630;-75
2023/09/05 04:04:17;;;;;;;18.15;5.60;;;;;;;23.28;58.27;101836.52;2102892;84;51574;-75
2023/09/05 04:07:21;;;;;;;15.13;5.50;;;;;;;23.26;58.27;101833.98;2103277;83;50276;-75
2023/09/05 04:10:23;;;;;;;10.45;5.08;;;;;;;23.26;58.45;101843.44;2121471;83;50700;-74
2023/09/05 04:13:25;;;;;;;10.28;5.08;;;;;;;23.25;58.46;101836.38;2101943;84;51461;-74
2023/09/05 04:16:28;;;;;;;12.45;4.78;;;;;;;23.25;58.54;101844.47;2103169;83;50661;-75
2023/09/05 04:19:30;;;;;;;10.93;4.78;;;;;;;23.26;58.51;101848.84;2101146;83;52563;-75
2023/09/05 04:22:32;;;;;;;12.53;4.80;;;;;;;23.26;58.51;101852.89;2104333;83;51372;-75
2023/09/05 04:25:40;;;;;;;16.35;4.90;;;;;;;23.27;58.52;101859.12;2122972;82;50276;-75
2023/09/05 04:28:38;;;;;;;17.50;5.40;;;;;;;23.24;58.59;101854.92;2104388;83;22427;-75
2023/09/05 04:31:40;;;;;;;13.30;5.22;;;;;;;23.24;58.65;101857.63;2122690;83;51450;-74
2023/09/05 04:34:42;;;;;;;14.83;5.72;;;;;;;23.23;58.68;101864.06;2054422;83;52456;-76
2023/09/05 04:37:45;;;;;;;16.23;4.80;;;;;;;23.22;58.60;101863.75;2100259;82;50482;-75
2023/09/05 04:40:47;;;;;;;18.65;5.33;;;;;;;23.25;58.55;101861.19;2092125;83;50170;-73
2023/09/05 04:43:49;;;;;;;24.82;5.67;;;;;;;23.24;58.59;101865.73;2100838;82;50089;-74
2023/09/05 04:46:51;;;;;;;18.37;5.00;;;;;;;23.24;58.72;101866.25;2102764;83;51521;-73
2023/09/05 04:49:56;;;;;;;19.82;5.70;;;;;;;23.28;58.65;101865.39;2102867;82;51412;-75
2023/09/05 04:52:58;;;;;;;19.30;5.43;;;;;;;23.20;58.25;101854.98;2102310;84;50720;-74
2023/09/05 04:56:01;;;;;;;29.85;5.58;;;;;;;23.20;58.25;101854.98;2104020;83;51572;-74
2023/09/05 04:59:04;;;;;;;23.85;5.70;;;;;;;23.32;58.44;101878.83;2127255;82;51288;-74
2023/09/05 05:02:06;;;;;;;24.25;5.70;;;;;;;23.31;58.51;101876.64;2083219;84;50261;-75
2023/09/05 05:05:08;;;;;;;20.60;6.10;;;;;;;23.35;58.41;101882.50;2072540;84;50263;-73
2023/09/05 05:08:10;;;;;;;15.55;5.42;;;;;;;23.39;58.19;101879.77;2065190;83;52420;-74
2023/09/05 05:11:13;;;;;;;26.48;5.95;;;;;;;23.38;58.13;101876.76;2122959;83;50221;-74
2023/09/05 05:14:15;;;;;;;21.68;5.83;;;;;;;23.38;58.07;101879.45;2096246;83;49672;-74
2023/09/05 05:17:17;;;;;;;15.08;5.17;;;;;;;23.37;58.09;101881.30;2122655;83;50618;-75
2023/09/05 05:20:19;;;;;;;14.95;5.40;;;;;;;23.35;58.11;101877.10;2075167;84;51536;-75
2023/09/05 05:23:21;;;;;;;24.65;5.70;;;;;;;23.33;58.03;101875.13;2062580;85;51551;-75
2023/09/05 05:26:24;;;;;;;23.87;5.58;;;;;;;23.30;58.09;101876.81;2073798;83;50223;-75
2023/09/05 05:29:31;;;;;;;14.73;4.95;;;;;;;23.33;58.04;101884.58;2108477;82;50413;-75
2023/09/05 05:32:30;;;;;;;14.65;5.00;;;;;;;23.37;57.93;101876.41;2108779;83;22323;-74
2023/09/05 05:35:33;;;;;;;13.75;4.60;;;;;;;23.40;57.90;101870.63;2104889;83;51517;-75
2023/09/05 05:38:35;;;;;;;14.63;4.80;;;;;;;23.41;57.99;101859.66;2101274;83;50456;-75
2023/09/05 05:41:37;;;;;;;20.85;5.22;;;;;;;23.48;57.77;101864.65;2103387;83;50719;-75
2023/09/05 05:44:39;;;;;;;13.88;4.97;;;;;;;23.56;57.58;101860.18;2123014;82;50268;-76
2023/09/05 05:47:42;;;;;;;12.53;5.03;;;;;;;23.61;57.50;101857.23;2114527;82;51459;-75
2023/09/05 05:50:44;;;;;;;13.70;4.90;;;;;;;23.69;57.33;101855.78;2115438;82;50094;-74
2023/09/05 05:53:48;;;;;;;17.17;5.12;;;;;;;23.78;57.24;101846.24;2122624;83;51439;-75
2023/09/05 05:56:52;;;;;;;18.55;5.55;;;;;;;23.83;57.01;101835.70;2123601;82;22211;-75
2023/09/05 05:59:55;;;;;;;25.77;4.60;;;;;;;23.84;56.92;101842.28;2123036;82;50704;-75
2023/09/05 06:02:58;;;;;;;14.33;4.72;;;;;;;23.84;56.83;101840.07;2104535;83;50344;-74
2023/09/05 06:06:00;;;;;;;17.70;4.85;;;;;;;23.89;56.70;101849.80;2082553;83;51539;-73
2023/09/05 06:09:02;;;;;;;20.20;5.15;;;;;;;23.86;56.62;101844.27;2122226;83;51549;-74
2023/09/05 06:12:05;;;;;;;17.50;4.53;;;;;;;23.85;56.58;101844.47;2121617;84;51475;-73
2023/09/05 06:15:08;;;;;;;22.22;5.22;;;;;;;23.86;56.59;101840.73;2102852;83;51498;-75
2023/09/05 06:18:11;;;;;;;18.60;4.90;;;;;;;23.90;56.62;101842.87;2102763;83;53697;-74
2023/09/05 06:21:13;;;;;;;14.35;4.75;;;;;;;23.99;56.55;101844.94;2103768;83;51191;-75
2023/09/05 06:24:18;;;;;;;20.00;5.53;;;;;;;24.05;56.37;101852.30;2103046;84;51451;-75
2023/09/05 06:27:19;;;;;;;16.90;4.83;;;;;;;24.08;56.19;101853.79;2103745;84;22386;-74
2023/09/05 06:30:26;;;;;;;15.70;5.05;;;;;;;24.10;56.13;101849.03;2121773;84;50508;-74
2023/09/05 06:33:28;;;;;;;22.50;5.45;;;;;;;24.13;56.03;101849.48;2103854;83;22388;-75
2023/09/05 06:36:30;;;;;;;16.27;4.53;;;;;;;24.18;56.00;101851.62;2097182;83;51934;-76
2023/09/05 06:39:35;;;;;;;22.17;5.00;;;;;;;24.21;55.97;101847.17;2103798;84;50608;-75
2023/09/05 06:42:37;;;;;;;22.30;5.20;;;;;;;24.23;55.85;101854.59;2116743;83;51669;-75
2023/09/05 06:45:40;;;;;;;21.37;4.65;;;;;;;24.28;55.78;101857.55;2070127;84;52445;-75
2023/09/05 06:48:42;;;;;;;19.42;4.85;;;;;;;24.30;55.72;101848.73;2070331;83;50693;-75
2023/09/05 06:51:44;;;;;;;24.63;5.08;;;;;;;24.30;55.61;101853.28;2106824;83;50754;-75
2023/09/05 06:54:46;;;;;;;28.02;5.53;;;;;;;24.26;55.51;101861.48;2070358;83;50607;-75
2023/09/05 06:57:48;;;;;;;24.72;4.95;;;;;;;24.24;55.59;101867.59;2070158;84;50290;-75
2023/09/05 07:00:54;;;;;;;17.48;5.08;;;;;;;24.20;55.61;101862.22;2069909;84;52428;-76
2023/09/05 07:03:55;;;;;;;18.20;5.17;;;;;;;24.17;55.59;101864.80;2092422;83;22357;-75
2023/09/05 07:06:57;;;;;;;12.37;5.03;;;;;;;24.18;55.64;101861.60;2082709;83;50498;-75
2023/09/05 07:10:00;;;;;;;12.25;4.60;;;;;;;24.18;55.57;101858.90;2081360;82;49647;-76
2023/09/05 07:13:02;;;;;;;14.93;4.92;;;;;;;24.25;55.66;101862.48;2121331;83;51565;-75
2023/09/05 07:16:04;;;;;;;14.38;4.53;;;;;;;24.27;55.49;101863.97;2103452;83;51513;-76
2023/09/05 07:19:06;;;;;;;14.90;4.70;;;;;;;24.30;55.34;101861.40;2103537;83;51557;-76
2023/09/05 07:22:09;;;;;;;17.40;5.20;;;;;;;24.32;55.21;101868.30;2103530;84;51323;-76
2023/09/05 07:25:11;;;;;;;16.67;5.25;;;;;;;24.31;55.12;101863.92;2102778;84;51453;-76
2023/09/05 07:28:13;;;;;;;9.93;4.50;;;;;;;24.30;55.08;101866.32;2103413;83;50349;-76
2023/09/05 07:31:17;;;;;;;17.75;4.30;;;;;;;24.34;55.08;101873.52;2103307;83;49740;-76
2023/09/05 07:34:19;;;;;;;18.30;4.95;;;;;;;24.37;54.97;101886.66;2121744;83;24238;-74
2023/09/05 07:37:21;;;;;;;11.93;4.17;;;;;;;24.39;54.88;101877.84;2103463;83;50231;-75
2023/09/05 07:40:26;;;;;;;13.25;4.80;;;;;;;24.37;54.77;101876.36;2121997;83;50378;-76
2023/09/05 07:43:27;;;;;;;11.45;4.67;;;;;;;24.33;54.76;101879.98;2103975;83;22483;-75
2023/09/05 07:46:30;;;;;;;13.00;4.75;;;;;;;24.33;54.80;101882.68;2104110;84;51479;-75
2023/09/05 07:49:37;;;;;;;12.15;5.10;;;;;;;24.34;54.78;101886.53;2081814;84;51269;-75
2023/09/05 07:52:43;;;;;;;15.32;4.28;;;;;;;24.39;54.67;101883.26;2121818;83;51582;-75
2023/09/05 07:55:43;;;;;;;19.55;4.90;;;;;;;24.37;54.60;101883.95;2103239;84;22453;-75
2023/09/05 07:58:45;;;;;;;15.40;5.28;;;;;;;24.36;54.57;101889.05;2081556;84;51189;-75
2023/09/05 08:01:48;;;;;;;10.72;4.75;;;;;;;24.36;54.60;101883.64;2103361;83;51578;-74
2023/09/05 08:04:50;;;;;;;12.10;5.10;;;;;;;24.34;54.61;101885.70;2103362;84;52610;-75
2023/09/05 08:07:52;;;;;;;10.30;4.42;;;;;;;24.35;54.60;101881.95;2122546;82;52365;-75
2023/09/05 08:10:54;;;;;;;15.10;4.22;;;;;;;24.33;54.62;101878.63;2105519;84;50683;-75
2023/09/05 08:13:57;;;;;;;15.28;5.05;;;;;;;24.31;54.59;101868.50;2081229;84;49616;-75
2023/09/05 08:16:59;;;;;;;12.50;4.58;;;;;;;24.32;54.64;101876.93;2103356;84;50755;-75
2023/09/05 08:20:03;;;;;;;15.45;5.45;;;;;;;24.32;54.60;101873.70;2121871;83;51580;-75
2023/09/05 08:23:06;;;;;;;16.00;5.10;;;;;;;24.31;54.58;101864.45;2083410;84;49500;-76
2023/09/05 08:26:10;;;;;;;14.93;5.15;;;;;;;24.32;54.53;101869.64;2103345;84;51553;-75
2023/09/05 08:29:14;;;;;;;13.75;4.90;;;;;;;24.33;54.54;101870.51;2104191;84;22471;-75
2023/09/05 08:32:15;;;;;;;12.07;4.50;;;;;;;24.32;54.50;101869.64;2122353;83;24472;-75
2023/09/05 08:35:18;;;;;;;9.43;4.47;;;;;;;24.32;54.49;101866.11;2121938;82;51459;-74
2023/09/05 08:38:20;;;;;;;11.10;4.70;;;;;;;24.30;54.51;101868.16;2100734;84;50632;-75
2023/09/05 08:41:23;;;;;;;12.95;4.85;;;;;;;24.29;54.53;101868.69;2080903;84;51738;-75
2023/09/05 08:44:25;;;;;;;13.93;5.12;;;;;;;24.28;54.57;101868.38;2102960;84;52402;-74
2023/09/05 08:47:29;;;;;;;11.20;4.62;;;;;;;24.28;54.54;101860.26;2103412;82;51379;-75
2023/09/05 08:50:31;;;;;;;9.65;4.25;;;;;;;24.28;54.52;101858.91;2121040;84;51640;-74
2023/09/05 08:53:36;;;;;;;13.15;5.22;;;;;;;24.26;54.58;101858.77;2121858;83;51413;-75
2023/09/05 08:56:38;;;;;;;11.38;4.90;;;;;;;24.24;54.64;101864.36;2101904;84;51415;-74
2023/09/05 08:59:42;;;;;;;13.48;5.22;;;;;;;24.24;54.61;101858.13;2121111;83;50254;-74
2023/09/05 09:02:45;;;;;;;9.98;4.70;;;;;;;24.23;54.65;101855.11;2121391;83;51689;-75
2023/09/05 09:05:49;;;;;;;15.60;4.92;;;;;;;24.20;54.70;101849.56;2081232;84;51740;-74
2023/09/05 09:08:51;;;;;;;11.05;5.20;;;;;;;24.19;54.73;101847.04;2110568;82;50313;-74
2023/09/05 09:12:01;;;;;;;9.88;4.50;;;;;;;24.18;54.72;101848.08;2094160;83;50388;-73
2023/09/05 09:15:12;;;;;;;9.55;4.80;;;;;;;24.18;54.75;101848.08;2103430;83;50443;-74
2023/09/05 09:18:17;;;;;;;10.30;4.65;;;;;;;24.14;54.79;101847.61;2123107;83;50529;-76
2023/09/05 09:21:19;;;;;;;9.28;4.70;;;;;;;24.12;54.80;101843.77;2094894;83;22982;-75
2023/09/05 09:24:21;;;;;;;10.80;4.97;;;;;;;24.11;54.81;101838.01;2123101;83;51525;-75
2023/09/05 09:27:23;;;;;;;7.62;4.25;;;;;;;24.12;54.77;101837.00;2104891;83;51478;-74
2023/09/05 09:30:27;;;;;;;9.90;5.62;;;;;;;24.12;54.78;101839.70;2127136;83;51231;-76
2023/09/05 09:33:31;;;;;;;10.15;4.60;;;;;;;24.08;54.84;101832.98;2123012;82;50456;-75
2023/09/05 09:36:37;;;;;;;9.90;4.75;;;;;;;24.07;54.88;101829.97;2105011;83;51566;-74
2023/09/05 09:39:39;;;;;;;9.80;5.25;;;;;;;24.06;54.87;101830.16;2104355;82;51512;-73
2023/09/05 09:42:43;;;;;;;9.98;4.60;;;;;;;24.04;54.91;101831.69;2104893;83;51410;-74
2023/09/05 09:45:45;;;;;;;10.43;4.70;;;;;;;24.03;54.93;101827.31;2126915;82;51592;-76
2023/09/05 09:48:47;;;;;;;11.30;4.87;;;;;;;24.02;54.97;101828.36;2082466;83;50675;-75
2023/09/05 09:51:53;;;;;;;9.20;4.42;;;;;;;24.03;54.93;101813.80;2123021;83;51531;-75
2023/09/05 09:54:56;;;;;;;9.55;4.55;;;;;;;23.99;55.00;101813.84;2072681;83;52369;-75
2023/09/05 09:58:02;;;;;;;10.43;4.78;;;;;;;23.99;55.00;101811.14;2104881;83;51588;-75
2023/09/05 10:01:04;;;;;;;9.98;4.60;;;;;;;24.00;54.97;101806.08;2123293;82;51509;-76
2023/09/05 10:04:06;;;;;;;8.85;4.75;;;;;;;23.98;54.98;101805.42;2123133;83;51418;-75
2023/09/05 10:07:08;;;;;;;9.53;4.53;;;;;;;23.98;54.99;101795.13;2122532;83;50652;-75
2023/09/05 10:10:15;;;;;;;8.73;4.53;;;;;;;23.96;55.04;101798.02;2103724;83;47838;-75
2023/09/05 10:13:17;;;;;;;8.43;4.53;;;;;;;23.96;55.01;101802.59;2122779;83;50260;-75
2023/09/05 10:16:19;;;;;;;9.40;4.70;;;;;;;23.94;55.07;101796.00;2123453;82;50790;-76
2023/09/05 10:19:22;;;;;;;9.20;4.53;;;;;;;23.92;55.07;101802.14;2127101;83;52493;-76
2023/09/05 10:22:24;;;;;;;6.55;4.40;;;;;;;23.92;55.08;101792.68;2123177;83;50742;-76
2023/09/05 10:25:26;;;;;;;8.83;4.45;;;;;;;23.91;55.07;101801.80;2123396;82;50375;-73
2023/09/05 10:28:29;;;;;;;9.25;4.60;;;;;;;23.91;55.04;101792.34;2127602;83;50623;-74
2023/09/05 10:31:31;;;;;;;8.10;4.33;;;;;;;23.91;55.01;101787.77;2104873;82;51708;-74
2023/09/05 10:34:54;;;;;;;8.38;4.40;;;;;;;23.91;55.03;101778.82;2126755;83;51179;-74
2023/09/05 10:38:02;;;;;;;6.58;3.65;;;;;;;23.91;54.98;101786.41;2122267;83;22816;-74
2023/09/05 10:41:06;;;;;;;8.40;4.53;;;;;;;23.90;54.96;101766.34;2121671;83;50436;-72
2023/09/05 10:44:08;;;;;;;9.08;4.30;;;;;;;23.90;54.96;101763.64;2101836;84;51873;-76
2023/09/05 10:47:30;;;;;;;9.78;4.40;;;;;;;23.92;54.94;101760.23;2121596;84;51440;-75
2023/09/05 10:50:32;;;;;;;9.80;4.00;;;;;;;23.93;54.92;101752.44;2103296;84;50795;-75
2023/09/05 10:53:47;;;;;;;9.23;4.60;;;;;;;23.90;54.98;101765.83;2103433;84;50293;-76
2023/09/05 10:56:49;;;;;;;8.18;4.30;;;;;;;23.89;55.00;101759.25;2121660;83;49949;-75
2023/09/05 10:59:53;;;;;;;7.03;3.95;;;;;;;23.91;55.00;101763.95;2081585;84;51630;-73
2023/09/05 11:03:00;;;;;;;8.30;4.35;;;;;;;23.90;54.98;101762.30;2103470;83;22559;-76
2023/09/05 11:06:24;;;;;;;10.00;4.55;;;;;;;23.87;55.03;101758.11;2120217;83;50302;-74
2023/09/05 11:09:29;;;;;;;8.23;4.25;;;;;;;23.87;55.05;101747.81;2104241;83;22376;-75
2023/09/05 11:12:28;;;;;;;7.80;4.45;;;;;;;23.88;55.06;101746.77;2103367;84;22328;-77
2023/09/05 11:15:37;;;;;;;6.87;4.05;;;;;;;23.87;55.04;101738.35;2103251;83;50347;-76
2023/09/05 11:18:54;;;;;;;7.22;3.90;;;;;;;23.88;55.04;101744.07;2103748;84;50677;-74
2023/09/05 11:21:48;;;;;;;7.40;4.15;;;;;;;23.89;55.00;101738.97;2124025;83;23200;-77
2023/09/05 11:24:52;;;;;;;9.43;4.15;;;;;;;23.87;55.03;101741.06;2125174;83;51621;-75
2023/09/05 11:28:00;;;;;;;11.73;4.40;;;;;;;23.86;55.01;101728.03;2103949;84;51512;-75
2023/09/05 11:31:03;;;;;;;6.62;4.03;;;;;;;23.88;54.98;101737.31;2121950;83;22325;-75
2023/09/05 11:34:04;;;;;;;7.65;4.15;;;;;;;23.88;55.01;101726.50;2121854;83;22797;-74
2023/09/05 11:37:16;;;;;;;7.55;3.90;;;;;;;23.88;55.01;101741.37;2103604;83;50671;-75
2023/09/05 11:40:17;;;;;;;8.45;3.98;;;;;;;23.84;55.03;101720.66;2122626;82;22341;-76
2023/09/05 11:43:21;;;;;;;7.30;3.83;;;;;;;23.86;55.04;101721.80;2103672;83;22565;-74
2023/09/05 11:46:25;;;;;;;6.25;4.03;;;;;;;23.86;55.01;101719.92;2104064;84;22475;-75
2023/09/05 11:49:30;;;;;;;6.75;3.87;;;;;;;23.85;55.05;101716.08;2121713;82;50787;-76
2023/09/05 11:52:32;;;;;;;7.60;3.90;;;;;;;23.85;55.00;101717.43;2103758;84;50463;-75
2023/09/05 11:55:34;;;;;;;7.47;3.90;;;;;;;23.86;55.00;101706.92;2125049;83;50102;-76
2023/09/05 11:58:37;;;;;;;6.83;4.17;;;;;;;23.86;55.03;101709.11;2101937;84;52549;-75
2023/09/05 12:01:39;;;;;;;7.72;3.72;;;;;;;23.86;55.01;101706.41;2121522;83;51474;-74
2023/09/05 12:04:42;;;;;;;5.65;3.65;;;;;;;23.87;55.03;101708.63;2103248;84;51472;-75
2023/09/05 12:07:53;;;;;;;5.35;3.55;;;;;;;23.84;55.04;101708.49;2103895;82;50500;-74
2023/09/05 12:10:57;;;;;;;9.23;3.60;;;;;;;23.84;55.10;101702.22;2121651;82;51621;-75
2023/09/05 12:13:59;;;;;;;6.17;3.60;;;;;;;23.85;55.05;101707.45;2101910;82;51744;-75
2023/09/05 12:17:01;;;;;;;6.22;3.75;;;;;;;23.87;55.03;101697.81;2103378;84;51501;-75
2023/09/05 12:20:07;;;;;;;7.55;3.62;;;;;;;23.85;55.08;101705.27;2103102;84;51650;-75
2023/09/05 12:23:09;;;;;;;7.20;3.95;;;;;;;23.83;55.13;101708.15;2103741;84;23050;-75
2023/09/05 12:26:11;;;;;;;7.30;3.77;;;;;;;23.82;55.15;101707.01;2102930;84;51532;-75
2023/09/05 12:29:15;;;;;;;8.20;3.90;;;;;;;23.83;55.16;101700.56;2121177;83;51514;-74
2023/09/05 12:32:17;;;;;;;6.12;3.90;;;;;;;23.81;55.19;101702.61;2103434;83;50328;-75
2023/09/05 12:35:19;;;;;;;6.17;3.45;;;;;;;23.82;55.18;101690.80;2103339;84;50720;-76
2023/09/05 12:38:21;;;;;;;7.72;3.75;;;;;;;23.82;55.20;101692.14;2076381;84;50953;-76
2023/09/05 12:41:23;;;;;;;6.00;3.55;;;;;;;23.82;55.15;101683.52;2103261;82;50305;-76
2023/09/05 12:44:29;;;;;;;5.67;3.62;;;;;;;23.83;55.13;101674.88;2102962;84;51434;-77
2023/09/05 12:47:30;;;;;;;6.55;3.65;;;;;;;23.85;55.13;101682.30;2103654;83;22278;-75
2023/09/05 12:50:36;;;;;;;9.30;3.83;;;;;;;23.85;55.10;101678.23;2103313;83;50385;-75
2023/09/05 12:53:38;;;;;;;6.22;3.60;;;;;;;23.86;55.10;101670.44;2121224;83;50302;-76
2023/09/05 12:56:43;;;;;;;6.25;3.50;;;;;;;23.85;55.13;101666.91;2103129;83;50408;-75
2023/09/05 12:59:44;;;;;;;9.20;3.45;;;;;;;23.85;55.16;101656.61;2120924;83;22943;-76
2023/09/05 13:02:47;;;;;;;4.92;3.05;;;;;;;23.87;55.12;101655.91;2081500;84;52408;-76
2023/09/05 13:05:49;;;;;;;6.20;4.05;;;;;;;23.87;55.13;101653.21;2103130;83;51402;-75
2023/09/05 13:08:51;;;;;;;6.03;3.27;;;;;;;23.88;55.12;101653.52;2121099;83;50195;-75
2023/09/05 13:11:53;;;;;;;6.80;3.58;;;;;;;23.88;55.15;101646.77;2080233;82;51253;-76
2023/09/05 13:14:55;;;;;;;6.10;3.58;;;;;;;23.91;55.10;101655.83;2073905;83;50573;-75
2023/09/05 13:17:59;;;;;;;5.75;3.25;;;;;;;23.90;55.17;101658.22;2082870;83;51552;-75
2023/09/05 13:21:01;;;;;;;5.47;3.27;;;;;;;23.91;55.11;101649.90;2123365;82;50450;-76
2023/09/05 13:24:03;;;;;;;4.40;3.15;;;;;;;23.94;55.08;101644.63;2123047;83;50257;-74
2023/09/05 13:27:06;;;;;;;4.65;3.05;;;;;;;23.93;55.22;101644.31;2073145;83;51720;-75
2023/09/05 13:30:09;;;;;;;5.47;3.40;;;;;;;23.96;55.18;101629.05;2104802;83;50257;-76
2023/09/05 13:33:11;;;;;;;5.20;3.25;;;;;;;23.98;55.16;101626.16;2082477;82;50205;-75
2023/09/05 13:36:14;;;;;;;6.85;3.45;;;;;;;23.96;55.25;101624.16;2126862;82;51155;-75
2023/09/05 13:39:16;;;;;;;7.72;3.33;;;;;;;23.97;55.25;101622.63;2105163;82;51469;-75
2023/09/05 13:42:18;;;;;;;5.28;3.05;;;;;;;23.96;55.33;101618.23;2096481;83;50294;-75
2023/09/05 13:45:21;;;;;;;5.42;3.50;;;;;;;23.97;55.26;101616.36;2075659;84;51468;-73
2023/09/05 13:48:23;;;;;;;4.08;3.00;;;;;;;23.96;55.35;101619.59;2120758;83;50673;-74
2023/09/05 13:51:25;;;;;;;5.92;3.08;;;;;;;23.97;55.33;101619.06;2077363;83;49862;-73
2023/09/05 13:54:27;;;;;;;4.42;2.87;;;;;;;23.97;55.34;101614.52;2103322;84;50339;-74
2023/09/05 13:57:29;;;;;;;5.00;2.90;;;;;;;23.98;55.39;101609.42;2103359;83;50621;-74
2023/09/05 14:00:33;;;;;;;4.35;2.92;;;;;;;23.99;55.35;101612.43;2103054;83;52547;-75
2023/09/05 14:03:35;;;;;;;5.03;3.10;;;;;;;24.00;55.38;101592.49;2103234;84;50305;-74